sensor_id;sensor_type;location;lat;lon;timestamp;temperature;humidity
11778;DHT22;5946;51.770;8.548;2022-09-01T04:30:57;10.50;99.90
11778;DHT22;5946;51.770;8.548;2022-09-01T04:33:25;11.10;99.90
11778;DHT22;5946;51.770;8.548;2022-09-01T04:35:52;11.10;99.90
11778;DHT22;5946;51.770;8.548;2022-09-01T04:38:22;11.10;99.90
11778;DHT22;5946;51.770;8.548;2022-09-01T04:40:47;11.20;99.90
11778;DHT22;5946;51.770;8.548;2022-09-01T04:43:13;11.20;99.90
11778;DHT22;5946;51.770;8.548;2022-09-01T04:45:39;11.20;99.90
11778;DHT22;5946;51.770;8.548;2022-09-01T04:48:05;11.20;99.90
11778;DHT22;5946;51.770;8.548;2022-09-01T04:50:32;11.20;99.90
11778;DHT22;5946;51.770;8.548;2022-09-01T04:52:59;11.20;99.90
11778;DHT22;5946;51.770;8.548;2022-09-01T04:55:27;11.20;99.90
11778;DHT22;5946;51.770;8.548;2022-09-01T04:57:55;11.20;99.90
11778;DHT22;5946;51.770;8.548;2022-09-01T05:00:23;11.30;99.90
11778;DHT22;5946;51.770;8.548;2022-09-01T05:02:51;11.30;99.90
11778;DHT22;5946;51.770;8.548;2022-09-01T05:05:21;11.30;99.90
11778;DHT22;5946;51.770;8.548;2022-09-01T05:07:48;11.30;99.90
11778;DHT22;5946;51.770;8.548;2022-09-01T05:10:19;11.30;99.90
11778;DHT22;5946;51.770;8.548;2022-09-01T05:12:46;11.40;99.90
11778;DHT22;5946;51.770;8.548;2022-09-01T05:15:14;11.40;99.90
11778;DHT22;5946;51.770;8.548;2022-09-01T05:17:40;11.50;99.90
11778;DHT22;5946;51.770;8.548;2022-09-01T05:20:07;11.50;99.90
11778;DHT22;5946;51.770;8.548;2022-09-01T05:22:34;11.50;99.90
11778;DHT22;5946;51.770;8.548;2022-09-01T05:25:00;11.60;99.90
11778;DHT22;5946;51.770;8.548;2022-09-01T05:27:52;11.70;99.90
11778;DHT22;5946;51.770;8.548;2022-09-01T05:30:18;11.80;99.90
11778;DHT22;5946;51.770;8.548;2022-09-01T05:32:43;11.90;99.90
11778;DHT22;5946;51.770;8.548;2022-09-01T05:35:11;11.90;99.90
11778;DHT22;5946;51.770;8.548;2022-09-01T05:37:37;12.00;99.90
11778;DHT22;5946;51.770;8.548;2022-09-01T05:40:07;12.10;99.90
11778;DHT22;5946;51.770;8.548;2022-09-01T05:42:43;12.20;99.90
11778;DHT22;5946;51.770;8.548;2022-09-01T05:45:08;12.40;99.90
11778;DHT22;5946;51.770;8.548;2022-09-01T05:47:37;12.50;99.90
11778;DHT22;5946;51.770;8.548;2022-09-01T05:50:04;12.70;99.90
11778;DHT22;5946;51.770;8.548;2022-09-01T05:52:32;12.80;99.90
11778;DHT22;5946;51.770;8.548;2022-09-01T05:54:58;12.90;99.90
11778;DHT22;5946;51.770;8.548;2022-09-01T05:57:25;13.00;99.90
11778;DHT22;5946;51.770;8.548;2022-09-01T05:59:51;13.10;99.90
11778;DHT22;5946;51.770;8.548;2022-09-01T06:02:19;13.30;99.90
11778;DHT22;5946;51.770;8.548;2022-09-01T06:04:46;13.40;99.90
11778;DHT22;5946;51.770;8.548;2022-09-01T06:07:13;13.60;99.90
11778;DHT22;5946;51.770;8.548;2022-09-01T06:09:45;13.60;99.90
11778;DHT22;5946;51.770;8.548;2022-09-01T06:12:12;13.80;99.90
11778;DHT22;5946;51.770;8.548;2022-09-01T06:14:42;13.90;99.90
11778;DHT22;5946;51.770;8.548;2022-09-01T06:17:08;14.00;99.90
11778;DHT22;5946;51.770;8.548;2022-09-01T06:19:36;14.10;99.90
11778;DHT22;5946;51.770;8.548;2022-09-01T06:22:02;14.20;99.90
11778;DHT22;5946;51.770;8.548;2022-09-01T06:24:28;14.30;99.90
11778;DHT22;5946;51.770;8.548;2022-09-01T06:29:20;14.50;99.90
11778;DHT22;5946;51.770;8.548;2022-09-01T06:31:45;14.40;99.90
11778;DHT22;5946;51.770;8.548;2022-09-01T06:34:16;14.90;99.90
11778;DHT22;5946;51.770;8.548;2022-09-01T06:36:43;15.00;99.90
11778;DHT22;5946;51.770;8.548;2022-09-01T06:39:10;15.10;99.90
11778;DHT22;5946;51.770;8.548;2022-09-01T06:41:48;15.20;99.90
11778;DHT22;5946;51.770;8.548;2022-09-01T06:44:14;15.40;99.90
11778;DHT22;5946;51.770;8.548;2022-09-01T06:46:40;15.40;99.90
11778;DHT22;5946;51.770;8.548;2022-09-01T06:49:05;15.50;99.90
11778;DHT22;5946;51.770;8.548;2022-09-01T06:51:35;15.60;99.90
11778;DHT22;5946;51.770;8.548;2022-09-01T06:58:56;15.80;99.90
11778;DHT22;5946;51.770;8.548;2022-09-01T07:01:22;15.90;99.90
11778;DHT22;5946;51.770;8.548;2022-09-01T07:03:50;16.00;99.90
11778;DHT22;5946;51.770;8.548;2022-09-01T07:06:18;16.20;99.90
11778;DHT22;5946;51.770;8.548;2022-09-01T07:08:44;16.20;99.90
11778;DHT22;5946;51.770;8.548;2022-09-01T07:11:40;16.30;99.90
11778;DHT22;5946;51.770;8.548;2022-09-01T07:14:06;16.40;99.90
11778;DHT22;5946;51.770;8.548;2022-09-01T07:16:36;16.60;99.90
11778;DHT22;5946;51.770;8.548;2022-09-01T07:19:05;16.70;99.90
11778;DHT22;5946;51.770;8.548;2022-09-01T07:21:37;16.90;99.90
11778;DHT22;5946;51.770;8.548;2022-09-01T07:24:03;17.00;99.90
11778;DHT22;5946;51.770;8.548;2022-09-01T07:26:32;17.10;99.90
11778;DHT22;5946;51.770;8.548;2022-09-01T07:29:01;17.30;99.90
11778;DHT22;5946;51.770;8.548;2022-09-01T07:31:34;17.30;99.90
11778;DHT22;5946;51.770;8.548;2022-09-01T07:34:02;17.40;99.90
11778;DHT22;5946;51.770;8.548;2022-09-01T07:36:29;17.60;99.90
11778;DHT22;5946;51.770;8.548;2022-09-01T07:38:56;17.70;99.90
11778;DHT22;5946;51.770;8.548;2022-09-01T07:41:24;17.80;99.90
11778;DHT22;5946;51.770;8.548;2022-09-01T07:43:51;18.00;99.90
11778;DHT22;5946;51.770;8.548;2022-09-01T07:46:19;18.00;99.90
11778;DHT22;5946;51.770;8.548;2022-09-01T07:48:45;18.10;99.90
11778;DHT22;5946;51.770;8.548;2022-09-01T07:51:14;18.30;99.90
11778;DHT22;5946;51.770;8.548;2022-09-01T10:18:51;24.20;83.20
11778;DHT22;5946;51.770;8.548;2022-09-01T10:21:43;24.40;84.00
11778;DHT22;5946;51.770;8.548;2022-09-01T10:24:31;24.60;84.60
11778;DHT22;5946;51.770;8.548;2022-09-01T13:44:11;26.50;70.70
11778;DHT22;5946;51.770;8.548;2022-09-01T13:46:37;26.20;71.70
11778;DHT22;5946;51.770;8.548;2022-09-01T13:49:03;25.60;73.50
11778;DHT22;5946;51.770;8.548;2022-09-01T13:51:28;25.70;74.70
11778;DHT22;5946;51.770;8.548;2022-09-01T13:53:54;26.00;74.30
11778;DHT22;5946;51.770;8.548;2022-09-01T13:56:20;26.20;72.40
11778;DHT22;5946;51.770;8.548;2022-09-01T13:58:45;26.20;72.60
11778;DHT22;5946;51.770;8.548;2022-09-01T14:01:13;26.30;72.30
11778;DHT22;5946;51.770;8.548;2022-09-01T14:03:39;26.20;72.20
11778;DHT22;5946;51.770;8.548;2022-09-01T14:06:06;25.90;73.00
11778;DHT22;5946;51.770;8.548;2022-09-01T14:08:31;25.40;74.10
11778;DHT22;5946;51.770;8.548;2022-09-01T14:10:58;25.20;75.20
11778;DHT22;5946;51.770;8.548;2022-09-01T14:13:25;25.10;75.00
11778;DHT22;5946;51.770;8.548;2022-09-01T14:15:52;25.40;74.30
11778;DHT22;5946;51.770;8.548;2022-09-01T14:18:18;26.00;73.00
11778;DHT22;5946;51.770;8.548;2022-09-01T14:20:48;25.90;72.80
11778;DHT22;5946;51.770;8.548;2022-09-01T14:23:15;25.60;74.30
11778;DHT22;5946;51.770;8.548;2022-09-01T14:25:44;25.70;74.40
11778;DHT22;5946;51.770;8.548;2022-09-01T14:28:10;27.90;72.10
11778;DHT22;5946;51.770;8.548;2022-09-01T14:30:35;30.80;79.40
11778;DHT22;5946;51.770;8.548;2022-09-01T14:33:02;32.40;70.30
11778;DHT22;5946;51.770;8.548;2022-09-01T14:35:29;33.70;67.00
11778;DHT22;5946;51.770;8.548;2022-09-01T14:37:57;33.70;66.70
11778;DHT22;5946;51.770;8.548;2022-09-01T14:40:23;34.10;64.10
11778;DHT22;5946;51.770;8.548;2022-09-01T14:42:50;34.20;62.70
11778;DHT22;5946;51.770;8.548;2022-09-01T14:45:22;34.50;62.90
11778;DHT22;5946;51.770;8.548;2022-09-01T14:47:51;35.40;58.90
11778;DHT22;5946;51.770;8.548;2022-09-01T14:50:19;35.70;58.30
11778;DHT22;5946;51.770;8.548;2022-09-01T14:52:45;36.50;57.10
11778;DHT22;5946;51.770;8.548;2022-09-01T14:55:12;36.60;57.80
11778;DHT22;5946;51.770;8.548;2022-09-01T14:57:37;36.30;54.30
11778;DHT22;5946;51.770;8.548;2022-09-01T15:00:08;36.70;53.90
11778;DHT22;5946;51.770;8.548;2022-09-01T15:02:35;36.40;53.30
11778;DHT22;5946;51.770;8.548;2022-09-01T15:05:01;36.80;53.10
11778;DHT22;5946;51.770;8.548;2022-09-01T15:07:26;37.30;52.10
11778;DHT22;5946;51.770;8.548;2022-09-01T15:09:52;37.30;47.90
11778;DHT22;5946;51.770;8.548;2022-09-01T15:12:17;37.40;47.50
11778;DHT22;5946;51.770;8.548;2022-09-01T15:14:44;37.40;46.50
11778;DHT22;5946;51.770;8.548;2022-09-01T15:17:09;37.70;50.10
11778;DHT22;5946;51.770;8.548;2022-09-01T15:19:35;37.40;48.90
11778;DHT22;5946;51.770;8.548;2022-09-01T15:22:00;37.40;48.50
11778;DHT22;5946;51.770;8.548;2022-09-01T15:24:26;36.90;48.40
11778;DHT22;5946;51.770;8.548;2022-09-01T15:26:52;37.30;48.60
11778;DHT22;5946;51.770;8.548;2022-09-01T15:29:17;37.10;48.10
11778;DHT22;5946;51.770;8.548;2022-09-01T15:31:43;37.20;48.40
11778;DHT22;5946;51.770;8.548;2022-09-01T15:34:10;37.40;47.80
11778;DHT22;5946;51.770;8.548;2022-09-01T15:36:38;37.90;47.20
11778;DHT22;5946;51.770;8.548;2022-09-01T15:39:05;37.90;47.20
11778;DHT22;5946;51.770;8.548;2022-09-01T15:41:33;37.80;46.50
11778;DHT22;5946;51.770;8.548;2022-09-01T15:44:04;38.20;46.80
11778;DHT22;5946;51.770;8.548;2022-09-01T15:46:30;38.10;46.30
11778;DHT22;5946;51.770;8.548;2022-09-01T15:49:05;37.90;46.70
11778;DHT22;5946;51.770;8.548;2022-09-01T15:51:34;37.90;46.10
11778;DHT22;5946;51.770;8.548;2022-09-01T15:54:03;38.50;45.60
11778;DHT22;5946;51.770;8.548;2022-09-01T15:56:29;38.40;45.70
11778;DHT22;5946;51.770;8.548;2022-09-01T15:58:55;39.30;51.00
11778;DHT22;5946;51.770;8.548;2022-09-01T16:01:24;39.40;52.00
11778;DHT22;5946;51.770;8.548;2022-09-01T16:06:15;39.80;42.40
11778;DHT22;5946;51.770;8.548;2022-09-01T16:08:42;39.60;42.30
11778;DHT22;5946;51.770;8.548;2022-09-01T16:11:09;39.40;42.30
11778;DHT22;5946;51.770;8.548;2022-09-01T16:13:36;39.30;42.50
11778;DHT22;5946;51.770;8.548;2022-09-01T16:16:13;39.30;42.30
11778;DHT22;5946;51.770;8.548;2022-09-01T16:18:50;39.30;41.50
11778;DHT22;5946;51.770;8.548;2022-09-01T16:21:26;39.10;41.70
11778;DHT22;5946;51.770;8.548;2022-09-01T16:23:54;38.70;42.00
11778;DHT22;5946;51.770;8.548;2022-09-01T16:26:21;38.90;42.30
11778;DHT22;5946;51.770;8.548;2022-09-01T16:28:54;39.10;42.50
11778;DHT22;5946;51.770;8.548;2022-09-01T16:31:24;39.20;42.00
11778;DHT22;5946;51.770;8.548;2022-09-01T16:33:57;38.90;41.40
11778;DHT22;5946;51.770;8.548;2022-09-01T16:36:58;38.50;42.40
11778;DHT22;5946;51.770;8.548;2022-09-01T16:42:59;37.90;42.20
11778;DHT22;5946;51.770;8.548;2022-09-01T16:48:38;37.70;42.90
11778;DHT22;5946;51.770;8.548;2022-09-01T16:59:38;36.50;43.70
11778;DHT22;5946;51.770;8.548;2022-09-01T17:05:13;36.00;50.80
11778;DHT22;5946;51.770;8.548;2022-09-01T17:07:49;36.10;50.10
11778;DHT22;5946;51.770;8.548;2022-09-01T17:12:52;35.00;53.30
11778;DHT22;5946;51.770;8.548;2022-09-01T17:15:33;34.90;54.70
11778;DHT22;5946;51.770;8.548;2022-09-01T17:18:12;34.40;54.40
11778;DHT22;5946;51.770;8.548;2022-09-01T17:20:44;34.20;56.00
11778;DHT22;5946;51.770;8.548;2022-09-01T17:23:14;33.90;57.70
11778;DHT22;5946;51.770;8.548;2022-09-01T17:25:51;32.90;59.60
11778;DHT22;5946;51.770;8.548;2022-09-01T17:28:46;30.50;57.30
11778;DHT22;5946;51.770;8.548;2022-09-01T17:31:20;28.20;56.40
11778;DHT22;5946;51.770;8.548;2022-09-01T17:42:42;23.30;71.20
11778;DHT22;5946;51.770;8.548;2022-09-01T17:45:25;22.70;72.30
11778;DHT22;5946;51.770;8.548;2022-09-01T17:48:11;22.30;73.80
11778;DHT22;5946;51.770;8.548;2022-09-01T18:05:09;20.40;77.60
11778;DHT22;5946;51.770;8.548;2022-09-01T18:08:01;20.30;78.90
11778;DHT22;5946;51.770;8.548;2022-09-01T18:10:51;20.20;79.50
11778;DHT22;5946;51.770;8.548;2022-09-01T18:16:04;19.70;80.20
11778;DHT22;5946;51.770;8.548;2022-09-01T18:18:40;19.50;81.00
11778;DHT22;5946;51.770;8.548;2022-09-01T18:21:17;19.30;81.10
11778;DHT22;5946;51.770;8.548;2022-09-01T18:23:48;19.10;82.70
11778;DHT22;5946;51.770;8.548;2022-09-01T18:28:42;18.90;82.70
11778;DHT22;5946;51.770;8.548;2022-09-01T18:42:00;18.60;83.10
11778;DHT22;5946;51.770;8.548;2022-09-01T18:44:38;18.60;83.10
11778;DHT22;5946;51.770;8.548;2022-09-01T18:47:12;18.50;82.90
11778;DHT22;5946;51.770;8.548;2022-09-01T18:55:37;18.40;82.40
11778;DHT22;5946;51.770;8.548;2022-09-01T18:58:28;18.30;82.60
11778;DHT22;5946;51.770;8.548;2022-09-01T19:01:03;18.10;83.10
11778;DHT22;5946;51.770;8.548;2022-09-01T19:03:45;18.10;82.70
11778;DHT22;5946;51.770;8.548;2022-09-01T19:09:12;17.90;83.10
11778;DHT22;5946;51.770;8.548;2022-09-01T19:12:03;17.90;83.30
11778;DHT22;5946;51.770;8.548;2022-09-01T19:14:51;17.80;83.50
11778;DHT22;5946;51.770;8.548;2022-09-01T19:20:26;17.60;83.60
11778;DHT22;5946;51.770;8.548;2022-09-01T19:25:42;17.30;84.70
11778;DHT22;5946;51.770;8.548;2022-09-01T19:28:17;17.40;84.80
11778;DHT22;5946;51.770;8.548;2022-09-01T19:30:51;17.20;85.10
11778;DHT22;5946;51.770;8.548;2022-09-01T19:33:23;17.20;85.10
11778;DHT22;5946;51.770;8.548;2022-09-01T19:35:53;17.10;85.80
11778;DHT22;5946;51.770;8.548;2022-09-01T19:38:22;17.00;85.90
11778;DHT22;5946;51.770;8.548;2022-09-01T19:40:55;17.00;86.60
11778;DHT22;5946;51.770;8.548;2022-09-01T19:43:22;16.90;87.10
11778;DHT22;5946;51.770;8.548;2022-09-01T19:46:02;17.00;87.50
11778;DHT22;5946;51.770;8.548;2022-09-01T19:48:58;16.70;88.30
11778;DHT22;5946;51.770;8.548;2022-09-01T19:51:32;16.60;88.10
11778;DHT22;5946;51.770;8.548;2022-09-01T19:54:12;16.50;89.10
11778;DHT22;5946;51.770;8.548;2022-09-01T19:56:53;16.40;90.00
11778;DHT22;5946;51.770;8.548;2022-09-01T20:02:04;16.30;90.60
11778;DHT22;5946;51.770;8.548;2022-09-01T20:07:26;16.10;90.90
11778;DHT22;5946;51.770;8.548;2022-09-01T20:10:21;16.00;91.20
11778;DHT22;5946;51.770;8.548;2022-09-01T20:15:44;16.00;91.20
11778;DHT22;5946;51.770;8.548;2022-09-01T20:18:20;16.00;91.30
11778;DHT22;5946;51.770;8.548;2022-09-01T20:20:48;16.10;91.50
11778;DHT22;5946;51.770;8.548;2022-09-01T20:26:00;16.10;91.50
11778;DHT22;5946;51.770;8.548;2022-09-01T20:28:57;16.10;91.40
11778;DHT22;5946;51.770;8.548;2022-09-01T20:31:31;16.10;91.60
11778;DHT22;5946;51.770;8.548;2022-09-01T20:37:17;16.20;91.20
11778;DHT22;5946;51.770;8.548;2022-09-01T20:40:03;16.10;90.90
11778;DHT22;5946;51.770;8.548;2022-09-01T20:45:25;16.10;91.00
11778;DHT22;5946;51.770;8.548;2022-09-01T20:48:04;15.90;91.20
11778;DHT22;5946;51.770;8.548;2022-09-01T20:53:40;15.80;91.60
11778;DHT22;5946;51.770;8.548;2022-09-01T20:59:04;15.70;91.70
11778;DHT22;5946;51.770;8.548;2022-09-01T21:01:45;15.60;92.30
11778;DHT22;5946;51.770;8.548;2022-09-01T21:07:14;15.50;92.70
11778;DHT22;5946;51.770;8.548;2022-09-01T21:12:37;15.30;93.10
11778;DHT22;5946;51.770;8.548;2022-09-01T21:15:07;15.20;93.20
11778;DHT22;5946;51.770;8.548;2022-09-01T21:21:06;15.20;93.20
11778;DHT22;5946;51.770;8.548;2022-09-01T21:23:35;15.20;93.70
11778;DHT22;5946;51.770;8.548;2022-09-01T21:26:01;15.10;93.30
11778;DHT22;5946;51.770;8.548;2022-09-01T21:28:28;15.10;93.80
11778;DHT22;5946;51.770;8.548;2022-09-01T21:30:55;15.00;94.30
11778;DHT22;5946;51.770;8.548;2022-09-01T21:33:25;14.90;94.90
11778;DHT22;5946;51.770;8.548;2022-09-01T21:35:51;14.90;94.80
11778;DHT22;5946;51.770;8.548;2022-09-01T21:38:17;14.80;94.90
11778;DHT22;5946;51.770;8.548;2022-09-01T21:40:43;14.80;95.00
11778;DHT22;5946;51.770;8.548;2022-09-01T21:43:30;14.70;95.50
11778;DHT22;5946;51.770;8.548;2022-09-01T21:45:56;14.70;95.00
11778;DHT22;5946;51.770;8.548;2022-09-01T21:48:22;14.80;95.30
11778;DHT22;5946;51.770;8.548;2022-09-01T21:50:47;14.80;95.70
11778;DHT22;5946;51.770;8.548;2022-09-01T21:53:14;14.70;95.50
11778;DHT22;5946;51.770;8.548;2022-09-01T21:55:40;14.70;95.50
11778;DHT22;5946;51.770;8.548;2022-09-01T21:58:06;14.70;95.80
11778;DHT22;5946;51.770;8.548;2022-09-01T22:00:34;14.70;96.10
11778;DHT22;5946;51.770;8.548;2022-09-01T22:03:00;14.60;96.60
11778;DHT22;5946;51.770;8.548;2022-09-01T22:05:28;14.50;96.80
11778;DHT22;5946;51.770;8.548;2022-09-01T22:07:54;14.40;96.80
11778;DHT22;5946;51.770;8.548;2022-09-01T22:10:25;14.40;96.50
11778;DHT22;5946;51.770;8.548;2022-09-01T22:12:52;14.50;96.70
11778;DHT22;5946;51.770;8.548;2022-09-01T22:15:20;14.50;96.90
11778;DHT22;5946;51.770;8.548;2022-09-01T22:17:46;14.60;96.80
11778;DHT22;5946;51.770;8.548;2022-09-01T22:20:14;14.60;96.40
11778;DHT22;5946;51.770;8.548;2022-09-01T22:22:41;14.70;96.00
11778;DHT22;5946;51.770;8.548;2022-09-01T22:25:10;14.80;96.20
11778;DHT22;5946;51.770;8.548;2022-09-01T22:27:36;14.80;96.00
11778;DHT22;5946;51.770;8.548;2022-09-01T22:30:04;14.80;96.10
11778;DHT22;5946;51.770;8.548;2022-09-01T22:32:29;14.80;96.20
11778;DHT22;5946;51.770;8.548;2022-09-01T22:34:58;14.80;96.30
11778;DHT22;5946;51.770;8.548;2022-09-01T22:37:23;14.80;96.30
11778;DHT22;5946;51.770;8.548;2022-09-01T22:39:49;14.80;96.60
11778;DHT22;5946;51.770;8.548;2022-09-01T22:42:14;14.80;96.50
11778;DHT22;5946;51.770;8.548;2022-09-01T22:44:40;14.80;96.60
11778;DHT22;5946;51.770;8.548;2022-09-01T22:47:05;14.80;96.70
11778;DHT22;5946;51.770;8.548;2022-09-01T22:49:31;14.80;96.70
11778;DHT22;5946;51.770;8.548;2022-09-01T22:51:57;14.80;97.00
11778;DHT22;5946;51.770;8.548;2022-09-01T22:54:22;14.70;97.10
11778;DHT22;5946;51.770;8.548;2022-09-01T22:56:48;14.60;97.00
11778;DHT22;5946;51.770;8.548;2022-09-01T22:59:14;14.70;97.20
11778;DHT22;5946;51.770;8.548;2022-09-01T23:01:42;14.60;97.50
11778;DHT22;5946;51.770;8.548;2022-09-01T23:04:10;14.60;97.80
11778;DHT22;5946;51.770;8.548;2022-09-01T23:06:42;14.50;97.80
11778;DHT22;5946;51.770;8.548;2022-09-01T23:09:09;14.50;97.90
11778;DHT22;5946;51.770;8.548;2022-09-01T23:11:38;14.40;97.90
11778;DHT22;5946;51.770;8.548;2022-09-01T23:14:04;14.40;98.20
11778;DHT22;5946;51.770;8.548;2022-09-01T23:16:30;14.50;98.10
11778;DHT22;5946;51.770;8.548;2022-09-01T23:18:55;14.40;98.30
11778;DHT22;5946;51.770;8.548;2022-09-01T23:21:26;14.30;98.20
11778;DHT22;5946;51.770;8.548;2022-09-01T23:23:55;14.50;98.50
11778;DHT22;5946;51.770;8.548;2022-09-01T23:26:20;14.50;98.50
11778;DHT22;5946;51.770;8.548;2022-09-01T23:28:48;14.40;98.40
11778;DHT22;5946;51.770;8.548;2022-09-01T23:31:17;14.40;98.70
11778;DHT22;5946;51.770;8.548;2022-09-01T23:33:43;14.40;98.80
11778;DHT22;5946;51.770;8.548;2022-09-01T23:36:12;14.30;99.00
11778;DHT22;5946;51.770;8.548;2022-09-01T23:38:39;14.30;99.40
11778;DHT22;5946;51.770;8.548;2022-09-01T23:41:08;14.30;99.30
11778;DHT22;5946;51.770;8.548;2022-09-01T23:43:35;14.40;99.60
11778;DHT22;5946;51.770;8.548;2022-09-01T23:46:01;14.30;99.20
11778;DHT22;5946;51.770;8.548;2022-09-01T23:48:27;14.30;99.60
11778;DHT22;5946;51.770;8.548;2022-09-01T23:51:10;14.30;99.80
11778;DHT22;5946;51.770;8.548;2022-09-01T23:53:37;14.30;99.60
11778;DHT22;5946;51.770;8.548;2022-09-01T23:56:08;14.30;99.50
11778;DHT22;5946;51.770;8.548;2022-09-01T23:58:34;14.30;99.90
